createdAt,value
2023-02-18T00:00:03.372Z,4.23
2023-02-18T00:02:32.786Z,3.73
2023-02-18T00:05:42.350Z,5.00
2023-02-18T00:08:27.891Z,6.43
2023-02-18T00:10:58.070Z,6.93
2023-02-18T00:13:31.150Z,4.60
2023-02-18T00:16:14.679Z,5.47
2023-02-18T00:18:52.583Z,7.07
2023-02-18T00:21:21.515Z,5.13
2023-02-18T00:23:50.289Z,5.30
2023-02-18T00:26:21.519Z,5.30
2023-02-18T00:28:51.717Z,5.00
2023-02-18T00:31:21.466Z,6.63
2023-02-18T00:33:50.315Z,7.13
2023-02-18T00:36:21.220Z,4.83
2023-02-18T00:38:51.865Z,5.63
2023-02-18T00:41:23.102Z,3.73
2023-02-18T00:43:53.226Z,5.37
2023-02-18T00:46:22.114Z,5.30
2023-02-18T00:48:51.062Z,5.03
2023-02-18T00:51:19.818Z,5.20
2023-02-18T00:53:48.485Z,5.23
2023-02-18T00:56:20.349Z,5.27
2023-02-18T00:58:52.207Z,5.00
2023-02-18T01:01:21.380Z,3.90
2023-02-18T01:03:50.655Z,6.07
2023-02-18T01:06:19.860Z,5.00
2023-02-18T01:08:52.615Z,6.73
2023-02-18T01:11:21.643Z,5.87
2023-02-18T01:13:52.123Z,5.10
2023-02-18T01:16:20.975Z,5.90
2023-02-18T01:18:50.051Z,4.77
2023-02-18T01:21:19.238Z,7.10
2023-02-18T01:23:47.980Z,6.00
2023-02-18T01:26:16.747Z,5.97
2023-02-18T01:28:46.489Z,5.40
2023-02-18T01:31:17.041Z,6.07
2023-02-18T01:33:46.031Z,5.50
2023-02-18T01:36:15.073Z,5.70
2023-02-18T01:38:44.125Z,6.03
2023-02-18T01:41:13.651Z,4.73
2023-02-18T01:43:43.624Z,5.40
2023-02-18T01:46:18.494Z,6.03
2023-02-18T01:48:50.162Z,5.43
2023-02-18T01:51:20.862Z,6.43
2023-02-18T01:53:51.801Z,4.00
2023-02-18T01:56:23.047Z,4.87
2023-02-18T01:58:52.498Z,4.83
2023-02-18T02:01:22.998Z,4.07
2023-02-18T02:03:51.700Z,5.40
2023-02-18T02:06:30.798Z,5.97
2023-02-18T02:09:04.117Z,4.60
2023-02-18T02:11:50.583Z,4.33
2023-02-18T02:14:25.121Z,4.67
2023-02-18T02:17:06.507Z,4.50
2023-02-18T02:19:52.052Z,5.10
2023-02-18T02:22:37.038Z,4.10
2023-02-18T02:25:11.024Z,3.97
2023-02-18T02:27:54.283Z,4.03
2023-02-18T02:30:40.775Z,4.47
2023-02-18T02:33:24.584Z,4.20
2023-02-18T02:36:04.519Z,3.30
2023-02-18T02:38:44.276Z,3.47
2023-02-18T02:41:19.173Z,3.77
2023-02-18T02:43:58.631Z,5.43
2023-02-18T02:46:31.210Z,3.67
2023-02-18T02:49:03.099Z,4.27
2023-02-18T02:51:35.566Z,3.97
2023-02-18T02:54:16.014Z,3.13
2023-02-18T02:56:47.035Z,4.03
2023-02-18T02:59:22.053Z,5.80
2023-02-18T03:02:01.510Z,4.07
2023-02-18T03:05:06.326Z,3.97
2023-02-18T03:07:53.862Z,3.00
2023-02-18T03:10:34.067Z,3.30
2023-02-18T03:13:24.341Z,3.87
2023-02-18T03:15:57.383Z,3.87
2023-02-18T03:18:42.550Z,3.97
2023-02-18T03:21:19.513Z,3.83
2023-02-18T03:23:51.607Z,3.10
2023-02-18T03:26:26.631Z,3.20
2023-02-18T03:28:56.960Z,3.17
2023-02-18T03:31:35.872Z,3.57
2023-02-18T03:34:07.034Z,3.80
2023-02-18T03:36:36.498Z,3.40
2023-02-18T03:39:06.379Z,4.50
2023-02-18T03:41:39.251Z,3.50
2023-02-18T03:44:10.614Z,4.00
2023-02-18T03:46:41.578Z,3.37
2023-02-18T03:49:12.998Z,3.57
2023-02-18T03:51:44.276Z,3.47
2023-02-18T03:54:15.799Z,3.80
2023-02-18T03:56:49.179Z,3.80
2023-02-18T03:59:17.957Z,4.67
2023-02-18T04:01:46.683Z,3.63
2023-02-18T04:04:34.618Z,3.63
2023-02-18T04:07:05.798Z,3.37
2023-02-18T04:09:36.822Z,3.83
2023-02-18T04:12:10.036Z,2.70
2023-02-18T04:14:40.870Z,3.17
2023-02-18T04:17:12.901Z,3.60
2023-02-18T04:19:43.918Z,2.80
2023-02-18T04:22:12.648Z,4.40
2023-02-18T04:24:43.934Z,2.60
2023-02-18T04:27:17.145Z,2.63
2023-02-18T04:29:48.687Z,3.30
2023-02-18T04:32:19.330Z,3.10
2023-02-18T04:34:51.251Z,1.90
2023-02-18T04:37:21.433Z,2.73
2023-02-18T04:39:54.018Z,3.03
2023-02-18T04:42:28.225Z,2.83
2023-02-18T04:45:00.463Z,2.50
2023-02-18T04:47:30.807Z,2.73
2023-02-18T04:49:59.530Z,1.83
2023-02-18T04:52:28.679Z,2.40
2023-02-18T04:54:57.402Z,2.10
2023-02-18T04:57:37.979Z,1.47
2023-02-18T05:00:09.176Z,1.80
2023-02-18T05:02:38.384Z,1.60
2023-02-18T05:05:09.668Z,1.47
2023-02-18T05:07:47.326Z,1.57
2023-02-18T05:10:21.314Z,1.30
2023-02-18T05:12:54.418Z,0.97
2023-02-18T05:15:23.872Z,0.97
2023-02-18T05:17:52.694Z,1.00
2023-02-18T05:20:21.613Z,1.07
2023-02-18T05:22:50.748Z,1.30
2023-02-18T05:25:19.659Z,1.27
2023-02-18T05:27:48.579Z,1.10
2023-02-18T05:30:18.888Z,1.17
2023-02-18T05:32:47.613Z,1.40
2023-02-18T05:35:16.384Z,1.13
2023-02-18T05:37:46.047Z,1.63
2023-02-18T05:40:15.009Z,1.13
2023-02-18T05:42:43.692Z,1.17
2023-02-18T05:45:12.523Z,1.20
2023-02-18T05:47:42.963Z,0.70
2023-02-18T05:50:11.910Z,0.67
2023-02-18T05:52:40.816Z,0.70
2023-02-18T05:55:10.827Z,1.13
2023-02-18T05:57:39.541Z,1.10
2023-02-18T06:00:10.368Z,0.57
2023-02-18T06:02:40.892Z,1.23
2023-02-18T06:05:11.630Z,1.57
2023-02-18T06:07:40.392Z,1.87
2023-02-18T06:10:14.506Z,1.20
2023-02-18T06:12:51.959Z,0.63
2023-02-18T06:15:20.952Z,0.90
2023-02-18T06:17:49.861Z,1.00
2023-02-18T06:20:20.263Z,0.83
2023-02-18T06:22:49.484Z,1.63
2023-02-18T06:25:18.492Z,0.97
2023-02-18T06:27:48.008Z,0.80
2023-02-18T06:30:17.032Z,0.97
2023-02-18T06:32:46.207Z,1.00
2023-02-18T06:35:15.998Z,1.37
2023-02-18T06:37:46.694Z,0.87
2023-02-18T06:40:16.496Z,1.27
2023-02-18T06:42:45.868Z,1.00
2023-02-18T06:45:14.744Z,0.60
2023-02-18T06:47:44.000Z,0.70
2023-02-18T06:50:12.948Z,0.60
2023-02-18T06:52:41.783Z,0.60
2023-02-18T06:55:13.067Z,0.90
2023-02-18T06:57:42.175Z,1.10
2023-02-18T07:00:11.361Z,1.23
2023-02-18T07:02:40.195Z,1.27
2023-02-18T07:05:09.493Z,1.13
2023-02-18T07:07:38.201Z,1.67
2023-02-18T07:10:07.688Z,1.13
2023-02-18T07:12:38.137Z,1.77
2023-02-18T07:15:07.765Z,1.30
2023-02-18T07:17:36.511Z,0.60
2023-02-18T07:20:06.071Z,1.50
2023-02-18T07:22:35.454Z,1.40
2023-02-18T07:25:04.724Z,0.50
2023-02-18T07:27:33.660Z,0.63
2023-02-18T07:30:04.233Z,1.00
2023-02-18T07:32:33.151Z,0.90
2023-02-18T07:35:01.984Z,1.40
2023-02-18T07:37:30.888Z,0.90
2023-02-18T07:40:00.246Z,1.07
2023-02-18T07:42:29.364Z,1.17
2023-02-18T07:44:58.785Z,1.30
2023-02-18T07:47:29.246Z,1.20
2023-02-18T07:49:58.649Z,1.77
2023-02-18T07:52:27.496Z,1.10
2023-02-18T07:54:57.480Z,1.60
2023-02-18T07:57:26.398Z,1.57
2023-02-18T07:59:55.179Z,1.00
2023-02-18T08:02:25.052Z,1.23
2023-02-18T08:04:55.470Z,1.13
2023-02-18T08:07:25.029Z,0.47
2023-02-18T08:09:53.823Z,0.60
2023-02-18T08:12:23.260Z,0.67
2023-02-18T08:14:52.535Z,0.70
2023-02-18T08:17:21.322Z,0.90
2023-02-18T08:19:50.456Z,0.97
2023-02-18T08:22:21.274Z,0.80
2023-02-18T08:24:50.202Z,2.10
2023-02-18T08:27:19.103Z,0.80
2023-02-18T08:29:48.270Z,1.13
2023-02-18T08:32:18.891Z,0.80
2023-02-18T08:34:47.704Z,1.10
2023-02-18T08:37:17.536Z,1.17
2023-02-18T08:39:48.310Z,1.00
2023-02-18T08:42:17.470Z,0.93
2023-02-18T08:44:46.765Z,1.00
2023-02-18T08:48:16.886Z,1.37
2023-02-18T08:50:08.501Z,1.10
2023-02-18T08:52:38.292Z,1.40
2023-02-18T08:55:11.809Z,0.90
2023-02-18T08:57:41.531Z,1.37
2023-02-18T09:03:41.628Z,1.27
2023-02-18T09:06:10.673Z,1.57
2023-02-18T09:08:40.124Z,1.60
2023-02-18T09:14:00.927Z,0.80
2023-02-18T09:16:30.262Z,1.67
